createdAt,value
2019-03-16T01:13:43.773Z,10.60
2019-03-16T01:22:58.070Z,10.50
2019-03-16T01:25:17.821Z,10.30
2019-03-16T01:26:28.703Z,10.20
2019-03-16T01:29:43.097Z,10.20
2019-03-16T01:31:53.780Z,10.20
2019-03-16T01:33:00.684Z,10.20
2019-03-16T01:37:35.336Z,10.10
2019-03-16T01:39:49.907Z,10.00
2019-03-16T01:40:57.345Z,10.00
2019-03-16T01:42:04.500Z,10.00
2019-03-16T01:43:12.680Z,10.00
2019-03-16T01:44:18.508Z,9.90
2019-03-16T01:45:23.578Z,9.90
2019-03-16T01:46:31.688Z,9.90
2019-03-16T01:47:38.353Z,9.90
2019-03-16T01:48:44.485Z,9.90
2019-03-16T01:49:49.476Z,9.90
2019-03-16T01:50:55.255Z,9.90
2019-03-16T01:52:03.117Z,9.90
2019-03-16T01:53:08.296Z,9.80
2019-03-16T01:54:15.829Z,9.80
2019-03-16T01:55:20.916Z,9.80
2019-03-16T01:56:26.438Z,9.80
2019-03-16T01:57:31.397Z,9.80
2019-03-16T01:58:41.410Z,9.70
2019-03-16T01:59:47.876Z,9.70
2019-03-16T02:00:55.244Z,9.30
2019-03-16T02:02:00.889Z,9.70
2019-03-16T02:03:07.479Z,9.70
2019-03-16T02:04:21.182Z,9.70
2019-03-16T02:05:31.516Z,9.70
2019-03-16T02:06:41.256Z,9.00
2019-03-16T02:07:46.631Z,9.60
2019-03-16T02:08:52.324Z,9.60
2019-03-16T02:09:57.240Z,9.60
2019-03-16T02:11:05.334Z,9.70
2019-03-16T02:12:11.892Z,9.70
2019-03-16T02:13:17.800Z,9.70
2019-03-16T02:15:29.083Z,9.70
2019-03-16T02:16:34.197Z,9.80
2019-03-16T02:17:41.062Z,9.70
2019-03-16T02:18:46.167Z,9.70
2019-03-16T02:19:51.991Z,9.70
2019-03-16T02:20:57.048Z,9.70
2019-03-16T02:22:02.350Z,9.60
2019-03-16T02:23:10.263Z,9.60
2019-03-16T02:24:36.675Z,9.60
2019-03-16T02:25:42.369Z,9.60
2019-03-16T02:26:47.423Z,9.60
2019-03-16T02:27:52.408Z,9.60
2019-03-16T02:28:57.668Z,9.60
2019-03-16T02:30:03.608Z,9.60
2019-03-16T02:31:09.400Z,9.60
2019-03-16T02:32:18.825Z,9.60
2019-03-16T02:33:24.297Z,9.60
2019-03-16T02:34:30.817Z,9.60
2019-03-16T02:35:36.025Z,9.60
2019-03-16T02:36:50.126Z,9.60
2019-03-16T02:37:55.837Z,9.60
2019-03-16T02:39:01.312Z,9.60
2019-03-16T02:40:06.721Z,9.60
2019-03-16T02:41:13.870Z,9.60
2019-03-16T02:42:19.571Z,9.60
2019-03-16T02:43:25.197Z,9.60
2019-03-16T02:44:30.471Z,9.50
2019-03-16T02:45:35.778Z,9.50
2019-03-16T02:46:40.839Z,9.50
2019-03-16T02:47:46.393Z,9.60
2019-03-16T02:51:15.583Z,9.50
2019-03-16T02:52:20.634Z,9.50
2019-03-16T02:54:30.381Z,9.60
2019-03-16T02:55:35.485Z,9.50
2019-03-16T02:56:40.979Z,9.50
2019-03-16T02:57:46.012Z,9.50
2019-03-16T02:58:51.287Z,9.50
2019-03-16T02:59:56.275Z,9.60
2019-03-16T03:01:04.322Z,9.60
2019-03-16T03:03:28.525Z,9.60
2019-03-16T03:04:22.022Z,9.50
2019-03-16T03:05:29.649Z,9.50
2019-03-16T03:06:36.335Z,9.50
2019-03-16T03:07:44.318Z,9.50
2019-03-16T03:08:49.646Z,9.50
2019-03-16T03:09:54.773Z,9.50
2019-03-16T03:11:00.286Z,9.50
2019-03-16T03:12:06.490Z,9.50
2019-03-16T03:13:14.590Z,9.60
2019-03-16T03:14:19.600Z,9.50
2019-03-16T03:15:24.522Z,9.50
2019-03-16T03:16:29.509Z,9.50
2019-03-16T03:17:34.505Z,9.50
2019-03-16T03:18:39.642Z,9.50
2019-03-16T03:19:44.875Z,9.50
2019-03-16T03:20:49.868Z,9.40
2019-03-16T03:21:54.995Z,9.40
2019-03-16T03:23:00.155Z,9.40
2019-03-16T03:24:05.340Z,9.40
2019-03-16T03:25:10.759Z,9.20
2019-03-16T03:26:15.803Z,9.50
2019-03-16T03:27:20.678Z,9.50
2019-03-16T03:28:25.610Z,9.50
2019-03-16T03:29:30.869Z,9.50
2019-03-16T03:30:35.927Z,9.40
2019-03-16T03:32:47.199Z,9.50
2019-03-16T03:34:02.084Z,9.50
2019-03-16T03:35:04.185Z,9.50
2019-03-16T03:36:12.163Z,9.40
2019-03-16T03:37:18.300Z,9.40
2019-03-16T03:39:27.611Z,9.30
2019-03-16T03:40:33.069Z,9.40
2019-03-16T03:41:38.775Z,9.30
2019-03-16T03:42:47.165Z,9.30
2019-03-16T03:43:53.816Z,9.20
2019-03-16T03:44:58.860Z,9.20
2019-03-16T03:46:12.757Z,9.30
2019-03-16T03:47:19.179Z,9.30
2019-03-16T03:48:24.119Z,9.30
2019-03-16T03:49:29.550Z,9.20
2019-03-16T03:50:34.523Z,9.20
2019-03-16T03:51:39.715Z,9.20
2019-03-16T03:52:44.812Z,9.20
2019-03-16T03:53:49.749Z,9.20
2019-03-16T03:54:54.872Z,9.20
2019-03-16T03:55:59.768Z,9.20
2019-03-16T03:57:05.000Z,9.10
2019-03-16T03:58:10.071Z,9.20
2019-03-16T03:59:15.197Z,9.20
2019-03-16T04:00:20.109Z,9.20
2019-03-16T04:01:26.202Z,9.20
2019-03-16T04:02:31.289Z,9.20
2019-03-16T04:03:42.083Z,9.10
2019-03-16T04:04:47.381Z,9.10
2019-03-16T04:06:01.075Z,9.20
2019-03-16T04:07:06.334Z,9.20
2019-03-16T04:08:11.353Z,9.10
2019-03-16T04:09:18.381Z,9.20
2019-03-16T04:10:23.277Z,9.10
2019-03-16T04:11:28.282Z,9.10
2019-03-16T04:12:33.175Z,9.10
2019-03-16T04:13:38.058Z,9.10
2019-03-16T04:14:43.085Z,9.10
2019-03-16T04:15:50.721Z,9.10
2019-03-16T04:16:55.582Z,9.10
2019-03-16T04:18:03.830Z,9.10
2019-03-16T04:19:08.811Z,9.10
2019-03-16T04:20:16.381Z,9.10
2019-03-16T04:21:21.726Z,9.10
2019-03-16T04:22:27.113Z,9.10
2019-03-16T04:23:31.990Z,9.20
2019-03-16T04:24:37.018Z,9.20
2019-03-16T04:25:42.175Z,9.20
2019-03-16T04:26:47.054Z,9.10
2019-03-16T04:27:51.945Z,9.20
2019-03-16T04:28:57.820Z,9.20
2019-03-16T04:30:02.833Z,9.20
2019-03-16T04:31:07.776Z,9.20
2019-03-16T04:32:12.724Z,9.20
2019-03-16T04:33:17.673Z,9.20
2019-03-16T04:34:29.164Z,9.10
2019-03-16T04:35:29.666Z,9.10
2019-03-16T04:36:34.940Z,9.10
2019-03-16T04:37:39.862Z,9.10
2019-03-16T04:38:45.228Z,9.10
2019-03-16T04:39:51.265Z,9.10
2019-03-16T04:40:56.180Z,9.10
2019-03-16T04:42:01.203Z,9.10
2019-03-16T04:43:06.648Z,9.10
2019-03-16T04:46:27.433Z,9.20
2019-03-16T04:47:32.409Z,9.20
2019-03-16T04:48:37.316Z,9.20
2019-03-16T04:49:42.293Z,9.20
2019-03-16T04:50:47.476Z,9.20
2019-03-16T04:51:52.471Z,9.30
2019-03-16T04:52:57.961Z,9.30
2019-03-16T04:54:03.329Z,9.30
2019-03-16T04:55:08.324Z,9.30
2019-03-16T04:56:14.234Z,9.30
2019-03-16T04:57:24.620Z,9.30
2019-03-16T04:58:29.778Z,9.30
2019-03-16T04:59:41.961Z,9.30
2019-03-16T05:00:47.049Z,9.30
2019-03-16T05:01:55.577Z,9.30
2019-03-16T05:03:01.083Z,9.30
2019-03-16T05:04:07.708Z,9.30
2019-03-16T05:05:12.885Z,9.30
2019-03-16T05:06:22.320Z,9.30
2019-03-16T05:07:27.890Z,9.40
2019-03-16T05:08:34.309Z,9.30
2019-03-16T05:09:39.162Z,9.40
2019-03-16T05:10:44.497Z,9.40
2019-03-16T05:11:49.724Z,9.40
2019-03-16T05:12:54.952Z,9.40
2019-03-16T05:13:59.893Z,9.40
2019-03-16T05:15:07.487Z,9.40
2019-03-16T05:16:12.693Z,9.40
2019-03-16T05:17:17.871Z,9.40
2019-03-16T05:18:23.122Z,9.40
2019-03-16T05:19:28.179Z,9.40
2019-03-16T05:20:33.935Z,9.40
2019-03-16T05:21:38.954Z,9.40
2019-03-16T05:22:44.048Z,9.40
2019-03-16T05:23:49.111Z,9.40
2019-03-16T05:24:54.121Z,9.40
2019-03-16T05:26:05.188Z,9.50
2019-03-16T05:27:10.762Z,9.50
2019-03-16T05:28:16.112Z,9.50
2019-03-16T05:29:22.089Z,9.40
2019-03-16T05:30:27.203Z,9.50
2019-03-16T05:31:32.118Z,9.50
2019-03-16T05:32:39.494Z,9.50
2019-03-16T05:33:47.688Z,9.50
2019-03-16T05:34:56.653Z,9.50
2019-03-16T05:35:59.376Z,9.50
2019-03-16T05:37:04.400Z,9.50
2019-03-16T05:38:09.679Z,9.50
2019-03-16T05:39:14.994Z,9.50
2019-03-16T05:40:20.208Z,9.50
2019-03-16T05:41:26.192Z,9.50
2019-03-16T05:42:32.516Z,9.50
2019-03-16T05:43:37.579Z,9.50
2019-03-16T05:44:42.677Z,9.50
2019-03-16T05:45:49.232Z,9.50
2019-03-16T05:46:54.501Z,9.50
2019-03-16T05:47:59.414Z,9.50
2019-03-16T05:49:13.786Z,9.50
2019-03-16T05:50:19.423Z,9.60
2019-03-16T05:51:24.462Z,9.50
2019-03-16T05:52:29.499Z,9.50
2019-03-16T05:53:34.522Z,9.50
2019-03-16T05:54:41.975Z,9.50
2019-03-16T05:55:46.576Z,9.50
2019-03-16T05:56:51.578Z,9.50
2019-03-16T05:57:56.477Z,9.50
2019-03-16T05:59:01.434Z,9.50
2019-03-16T06:00:09.787Z,9.50
2019-03-16T06:01:14.373Z,9.70
2019-03-16T06:02:26.426Z,9.50
2019-03-16T06:03:35.091Z,9.50
2019-03-16T06:04:40.819Z,9.50
2019-03-16T06:05:45.980Z,9.50
2019-03-16T06:06:52.190Z,9.50
2019-03-16T06:08:23.098Z,9.50
2019-03-16T06:09:28.664Z,9.50
2019-03-16T06:10:45.087Z,9.40
2019-03-16T06:11:53.348Z,9.50
2019-03-16T06:12:58.341Z,9.50
2019-03-16T06:14:04.694Z,9.50
2019-03-16T06:15:16.127Z,9.50
2019-03-16T06:16:17.745Z,9.50
2019-03-16T06:17:23.804Z,9.50
2019-03-16T06:18:42.466Z,9.50
2019-03-16T06:19:57.812Z,9.50
2019-03-16T06:21:03.299Z,9.50
2019-03-16T06:22:08.379Z,9.50
2019-03-16T06:23:18.147Z,9.50
2019-03-16T06:24:28.218Z,9.50
2019-03-16T06:25:38.177Z,9.50
2019-03-16T06:26:45.687Z,9.50
2019-03-16T06:27:52.029Z,9.50
2019-03-16T06:29:13.743Z,9.50
2019-03-16T06:30:20.825Z,9.50
2019-03-16T06:32:01.382Z,9.50
2019-03-16T06:33:22.341Z,9.50
2019-03-16T06:34:28.173Z,9.50
2019-03-16T06:35:33.643Z,9.50
2019-03-16T06:36:38.944Z,9.50
2019-03-16T06:37:44.721Z,9.50
2019-03-16T06:38:52.916Z,9.50
2019-03-16T06:40:03.176Z,9.50
2019-03-16T06:41:10.169Z,9.50
2019-03-16T06:42:15.538Z,9.60
2019-03-16T06:43:20.930Z,9.60
2019-03-16T06:44:26.688Z,9.60
2019-03-16T06:45:34.066Z,9.60
2019-03-16T06:46:46.005Z,9.60
2019-03-16T06:55:47.724Z,9.60
2019-03-16T06:56:52.888Z,9.60
2019-03-16T06:57:57.832Z,9.70
2019-03-16T06:59:03.024Z,9.70
2019-03-16T07:00:08.676Z,9.70
2019-03-16T07:01:16.232Z,9.70
2019-03-16T07:02:20.740Z,9.70
2019-03-16T07:03:27.437Z,9.70
2019-03-16T07:04:34.875Z,9.70
2019-03-16T07:05:44.643Z,10.00
2019-03-16T07:07:55.733Z,9.80
2019-03-16T07:32:17.324Z,10.50
2019-03-16T07:37:57.501Z,10.90
2019-03-16T07:41:21.788Z,11.00
2019-03-16T07:42:27.433Z,11.10
2019-03-16T07:43:32.461Z,11.10
2019-03-16T07:44:37.521Z,11.10
2019-03-16T07:45:45.272Z,11.10
2019-03-16T07:46:51.875Z,11.00
2019-03-16T07:48:02.673Z,11.70
2019-03-16T07:52:25.385Z,11.20
2019-03-16T07:53:33.135Z,11.20
2019-03-16T07:54:41.460Z,11.20
2019-03-16T07:55:47.295Z,11.20
2019-03-16T07:56:59.830Z,11.20
2019-03-16T07:58:05.132Z,11.20
2019-03-16T07:59:10.438Z,11.20
2019-03-16T08:00:15.783Z,11.20
2019-03-16T08:01:21.148Z,11.20
2019-03-16T08:02:30.405Z,11.20
2019-03-16T08:03:36.781Z,11.10
2019-03-16T08:04:43.457Z,11.10
2019-03-16T08:05:49.060Z,11.20
2019-03-16T08:06:54.300Z,11.20
2019-03-16T08:08:05.045Z,11.20
2019-03-16T08:09:13.593Z,11.20
2019-03-16T08:10:20.468Z,11.20
2019-03-16T08:11:26.482Z,11.20
2019-03-16T08:12:35.276Z,11.20
2019-03-16T08:13:43.582Z,11.20
2019-03-16T08:14:50.127Z,11.20
2019-03-16T08:15:55.742Z,11.30
2019-03-16T08:17:05.921Z,11.30
2019-03-16T08:18:11.610Z,11.20
2019-03-16T08:19:17.329Z,11.20
2019-03-16T08:20:32.259Z,11.30
2019-03-16T08:21:37.474Z,11.30
2019-03-16T08:22:43.791Z,11.30
2019-03-16T08:23:50.154Z,11.30
2019-03-16T08:24:55.223Z,11.30
2019-03-16T08:26:00.705Z,11.30
2019-03-16T08:27:07.681Z,11.20
2019-03-16T08:28:12.865Z,11.20
2019-03-16T08:29:22.455Z,11.20
2019-03-16T08:30:27.432Z,11.20
2019-03-16T08:31:34.190Z,11.20
2019-03-16T08:32:42.259Z,11.20
2019-03-16T08:33:49.853Z,11.20
2019-03-16T08:34:56.601Z,11.20
2019-03-16T08:36:02.080Z,11.10
2019-03-16T08:37:07.074Z,11.10
2019-03-16T08:38:15.429Z,11.20
2019-03-16T08:39:51.317Z,11.20
2019-03-16T08:41:01.838Z,11.20
2019-03-16T08:42:06.854Z,11.10
2019-03-16T08:43:32.507Z,11.10
2019-03-16T08:44:44.858Z,11.10
2019-03-16T08:45:49.954Z,11.00
2019-03-16T08:46:55.493Z,11.10
2019-03-16T08:48:02.519Z,11.10
2019-03-16T08:49:08.453Z,11.00
2019-03-16T08:50:15.404Z,11.00
2019-03-16T08:51:20.366Z,11.10
2019-03-16T08:52:30.866Z,11.10
2019-03-16T08:53:55.517Z,11.10
2019-03-16T08:55:10.443Z,11.10
2019-03-16T08:56:42.605Z,11.10
2019-03-16T08:57:51.671Z,11.10
2019-03-16T08:59:01.413Z,11.10
2019-03-16T09:00:12.077Z,11.10
2019-03-16T09:01:48.338Z,11.10
2019-03-16T09:03:09.225Z,11.10
2019-03-16T09:04:15.096Z,11.10
2019-03-16T09:05:21.735Z,11.10
2019-03-16T09:06:31.563Z,11.10
2019-03-16T09:08:29.830Z,11.10
2019-03-16T09:09:35.510Z,11.10
2019-03-16T09:11:08.959Z,11.10
2019-03-16T09:12:14.144Z,11.10
2019-03-16T09:13:21.555Z,11.20
2019-03-16T09:14:35.230Z,11.20
2019-03-16T09:15:40.709Z,11.20
2019-03-16T09:17:57.894Z,11.20
2019-03-16T09:19:44.802Z,11.30
2019-03-16T09:21:12.624Z,11.20
2019-03-16T09:22:44.745Z,11.20
2019-03-16T09:23:53.122Z,11.20
2019-03-16T09:24:59.887Z,11.20
2019-03-16T09:26:22.928Z,11.20
2019-03-16T09:27:36.575Z,11.30
2019-03-16T09:28:59.990Z,11.30
2019-03-16T09:30:04.251Z,11.30
2019-03-16T09:31:31.771Z,11.30
2019-03-16T09:32:40.526Z,11.20
2019-03-16T09:33:47.611Z,11.30
2019-03-16T09:35:06.030Z,11.30
2019-03-16T09:36:28.175Z,11.40
2019-03-16T09:37:34.758Z,11.40
2019-03-16T09:38:41.438Z,11.40
2019-03-16T09:39:53.641Z,11.40
2019-03-16T09:43:38.906Z,11.40
2019-03-16T09:46:24.045Z,11.50
2019-03-16T09:47:35.847Z,11.50
2019-03-16T09:48:59.096Z,11.60
2019-03-16T09:51:55.530Z,11.70
2019-03-16T09:56:00.235Z,11.80
2019-03-16T09:57:06.205Z,11.90
2019-03-16T09:58:30.773Z,11.90
2019-03-16T09:59:30.358Z,11.90
2019-03-16T10:00:44.505Z,11.90
2019-03-16T10:02:23.725Z,11.90
2019-03-16T10:03:34.422Z,11.90
2019-03-16T10:04:39.579Z,11.90
2019-03-16T10:05:44.780Z,11.90
2019-03-16T10:06:49.948Z,12.00
2019-03-16T10:08:00.035Z,12.00
2019-03-16T10:09:14.387Z,12.00
2019-03-16T10:10:51.451Z,12.00
2019-03-16T10:14:17.224Z,12.00
2019-03-16T10:16:56.756Z,12.00
2019-03-16T10:17:04.178Z,12.00
2019-03-16T10:18:15.060Z,12.00
2019-03-16T10:19:35.323Z,12.00
2019-03-16T10:21:03.643Z,12.00
2019-03-16T10:27:57.261Z,12.10
2019-03-16T10:28:43.570Z,12.10
2019-03-16T10:29:52.182Z,12.20
2019-03-16T10:30:58.354Z,12.20
2019-03-16T10:32:08.525Z,12.20
2019-03-16T10:34:59.862Z,12.10
2019-03-16T10:36:11.523Z,12.20
2019-03-16T10:37:17.728Z,12.10
2019-03-16T10:38:25.593Z,12.20
2019-03-16T10:39:56.658Z,12.10
2019-03-16T10:41:21.982Z,12.20
2019-03-16T10:42:27.360Z,12.20
2019-03-16T10:43:41.298Z,12.10
2019-03-16T10:45:03.998Z,12.10
2019-03-16T10:46:10.442Z,12.20
2019-03-16T10:47:29.417Z,12.10
2019-03-16T10:48:42.414Z,12.00
2019-03-16T10:49:55.247Z,12.00
2019-03-16T10:53:57.501Z,12.00
2019-03-16T10:57:26.161Z,12.10
2019-03-16T10:58:56.464Z,12.20
2019-03-16T11:00:44.259Z,12.30
2019-03-16T11:04:08.607Z,12.40
2019-03-16T11:05:17.226Z,12.50
2019-03-16T11:06:25.767Z,12.60
2019-03-16T11:07:35.170Z,12.60
2019-03-16T11:09:26.819Z,12.60
2019-03-16T11:10:32.262Z,12.60
2019-03-16T11:11:48.499Z,12.60
2019-03-16T11:13:00.697Z,12.60
2019-03-16T11:14:14.332Z,12.60
2019-03-16T11:15:22.134Z,12.70
2019-03-16T11:16:33.800Z,12.80
2019-03-16T11:17:41.591Z,12.90
2019-03-16T11:21:04.568Z,13.10
2019-03-16T11:22:36.543Z,13.10
2019-03-16T11:23:55.735Z,13.20
2019-03-16T11:25:09.599Z,13.20
2019-03-16T11:26:33.166Z,13.20
2019-03-16T11:28:03.475Z,13.20
2019-03-16T11:30:24.549Z,13.20
2019-03-16T11:31:06.993Z,13.20
2019-03-16T11:32:16.239Z,13.30
2019-03-16T11:33:25.904Z,13.30
2019-03-16T11:35:53.662Z,13.30
2019-03-16T11:37:05.183Z,13.30
2019-03-16T11:38:11.423Z,13.30
2019-03-16T11:39:44.002Z,13.30
2019-03-16T11:40:57.984Z,13.20
2019-03-16T11:42:40.135Z,13.10
2019-03-16T11:43:48.624Z,13.10
2019-03-16T11:44:55.688Z,13.10
2019-03-16T11:46:00.941Z,13.00
2019-03-16T11:47:07.227Z,13.00
2019-03-16T11:48:17.650Z,12.90
2019-03-16T11:49:29.944Z,12.90
2019-03-16T11:50:41.211Z,12.90
2019-03-16T11:51:50.759Z,12.80
2019-03-16T11:53:14.199Z,12.70
2019-03-16T11:54:39.295Z,12.70
2019-03-16T11:55:37.722Z,12.70
2019-03-16T11:56:48.244Z,12.60
2019-03-16T11:57:53.867Z,12.60
2019-03-16T11:59:20.966Z,12.60
2019-03-16T12:00:28.294Z,12.60
2019-03-16T12:01:38.965Z,12.60
2019-03-16T12:02:46.565Z,12.60
2019-03-16T12:03:53.552Z,12.60
2019-03-16T12:04:58.623Z,12.60
2019-03-16T12:06:04.711Z,12.60
2019-03-16T12:07:11.679Z,12.60
2019-03-16T12:08:21.223Z,12.60
2019-03-16T12:09:53.572Z,12.60
2019-03-16T12:11:02.426Z,12.60
2019-03-16T12:12:10.965Z,12.60
2019-03-16T12:13:19.438Z,12.50
2019-03-16T12:14:26.092Z,12.50
2019-03-16T12:15:45.747Z,12.50
2019-03-16T12:17:00.776Z,12.50
2019-03-16T12:18:12.473Z,12.60
2019-03-16T12:19:17.749Z,12.50
2019-03-16T12:20:26.430Z,12.50
2019-03-16T12:21:32.325Z,12.50
2019-03-16T12:22:37.965Z,12.50
2019-03-16T12:23:44.331Z,12.60
2019-03-16T12:24:50.104Z,12.60
2019-03-16T12:25:57.021Z,12.60
2019-03-16T12:27:02.812Z,12.60
2019-03-16T12:28:15.011Z,12.50
2019-03-16T12:29:20.180Z,12.50
2019-03-16T12:30:25.350Z,12.50
2019-03-16T12:31:30.374Z,12.50
2019-03-16T12:32:44.464Z,12.50
2019-03-16T12:33:52.713Z,12.60
2019-03-16T12:35:00.410Z,12.50
2019-03-16T12:36:08.954Z,12.60
2019-03-16T12:37:50.342Z,12.50
2019-03-16T12:38:59.713Z,12.50
2019-03-16T12:40:07.920Z,12.50
2019-03-16T12:41:23.548Z,12.50
2019-03-16T12:42:28.386Z,12.50
2019-03-16T12:43:40.020Z,12.50
2019-03-16T12:44:52.643Z,12.50
2019-03-16T12:46:11.877Z,12.40
2019-03-16T12:47:27.313Z,12.40
2019-03-16T12:48:33.239Z,12.40
2019-03-16T12:51:17.186Z,12.40
2019-03-16T12:52:26.653Z,12.40
2019-03-16T12:53:34.325Z,12.50
2019-03-16T12:54:43.880Z,12.40
2019-03-16T12:55:57.059Z,12.40
2019-03-16T12:57:04.774Z,12.40
2019-03-16T12:58:11.413Z,12.40
2019-03-16T12:59:25.346Z,12.40
2019-03-16T13:00:36.773Z,12.40
2019-03-16T13:01:45.206Z,12.40
2019-03-16T13:02:53.049Z,12.40
2019-03-16T13:04:07.412Z,12.40
2019-03-16T13:05:12.678Z,12.40
2019-03-16T13:06:20.427Z,12.40
2019-03-16T13:07:25.845Z,12.40
2019-03-16T13:08:31.687Z,12.30
2019-03-16T13:09:42.155Z,12.30
2019-03-16T13:10:54.052Z,12.30
2019-03-16T13:12:03.212Z,12.30
2019-03-16T13:13:15.911Z,12.30
2019-03-16T13:14:24.213Z,12.30
2019-03-16T13:15:31.030Z,12.30
2019-03-16T13:16:37.418Z,12.30
2019-03-16T13:17:45.663Z,12.30
2019-03-16T13:18:51.215Z,12.30
2019-03-16T13:19:56.953Z,12.30
2019-03-16T13:21:02.535Z,12.30
2019-03-16T13:22:07.708Z,12.30
2019-03-16T13:23:16.963Z,12.30
2019-03-16T13:24:22.638Z,12.30
2019-03-16T13:25:28.312Z,12.30
2019-03-16T13:26:34.057Z,12.30
2019-03-16T13:27:44.648Z,12.30
2019-03-16T13:28:56.068Z,12.30
2019-03-16T13:30:17.433Z,12.30
2019-03-16T13:31:32.809Z,12.30
2019-03-16T13:32:41.161Z,12.30
2019-03-16T13:33:46.934Z,12.30
2019-03-16T13:35:00.445Z,12.20
2019-03-16T13:36:09.751Z,12.20
2019-03-16T13:37:24.361Z,12.20
2019-03-16T13:39:23.361Z,12.20
2019-03-16T13:40:29.302Z,12.20
2019-03-16T13:41:40.779Z,12.30
2019-03-16T13:42:46.996Z,12.20
2019-03-16T13:43:54.847Z,12.30
2019-03-16T13:45:08.562Z,12.30
2019-03-16T13:46:13.789Z,12.30
2019-03-16T13:47:19.568Z,12.30
2019-03-16T13:48:24.567Z,12.30
2019-03-16T13:49:34.192Z,12.30
2019-03-16T13:50:39.411Z,12.30
2019-03-16T13:51:47.900Z,12.30
2019-03-16T13:52:53.245Z,12.30
2019-03-16T13:53:59.128Z,12.40
2019-03-16T13:55:07.752Z,12.40
2019-03-16T13:56:22.448Z,12.40
2019-03-16T13:57:31.278Z,12.40
2019-03-16T13:59:18.832Z,12.30
2019-03-16T14:00:31.602Z,12.40
2019-03-16T14:01:40.036Z,12.40
2019-03-16T14:02:45.684Z,12.30
2019-03-16T14:04:21.684Z,12.30
2019-03-16T14:05:38.944Z,12.30
2019-03-16T14:07:04.382Z,12.30
2019-03-16T14:08:12.421Z,12.30
2019-03-16T14:09:58.453Z,12.30
2019-03-16T14:11:43.720Z,12.30
2019-03-16T14:13:02.339Z,12.30
2019-03-16T14:14:30.639Z,12.30
2019-03-16T14:17:37.963Z,12.30
2019-03-16T14:18:43.744Z,12.30
2019-03-16T14:20:25.627Z,12.30
2019-03-16T14:21:34.926Z,12.40
2019-03-16T14:25:50.408Z,12.40
2019-03-16T14:26:57.879Z,12.40
2019-03-16T14:32:46.410Z,12.40
2019-03-16T14:34:22.370Z,12.40
2019-03-16T14:35:39.192Z,12.40
2019-03-16T14:37:49.245Z,12.40
2019-03-16T14:38:58.088Z,12.50
2019-03-16T14:40:08.260Z,12.40
2019-03-16T14:41:26.471Z,12.40
2019-03-16T14:42:29.666Z,12.40
2019-03-16T14:43:36.985Z,12.40
2019-03-16T14:44:47.021Z,12.50
2019-03-16T14:45:52.481Z,12.40
2019-03-16T14:46:58.010Z,12.30
2019-03-16T14:48:05.976Z,12.30
2019-03-16T14:49:11.392Z,12.30
2019-03-16T14:50:18.489Z,12.30
2019-03-16T14:51:29.842Z,12.30
2019-03-16T14:52:43.480Z,12.30
2019-03-16T14:53:48.540Z,12.30
2019-03-16T14:54:54.397Z,12.40
2019-03-16T14:56:00.331Z,12.40
2019-03-16T14:57:14.267Z,12.40
2019-03-16T14:58:22.487Z,12.40
2019-03-16T14:59:27.765Z,12.50
2019-03-16T15:00:38.367Z,12.60
2019-03-16T15:01:41.393Z,12.40
2019-03-16T15:02:52.395Z,12.40
2019-03-16T15:03:58.917Z,12.40
2019-03-16T15:05:08.791Z,12.40
2019-03-16T15:06:15.488Z,12.40
2019-03-16T15:07:23.192Z,12.40
2019-03-16T15:08:30.782Z,12.40
2019-03-16T15:09:36.605Z,12.40
2019-03-16T15:10:43.964Z,12.40
2019-03-16T15:11:49.383Z,12.40
2019-03-16T15:12:54.499Z,12.30
2019-03-16T15:14:03.188Z,12.40
2019-03-16T15:15:10.922Z,12.40
2019-03-16T15:16:19.547Z,12.40
2019-03-16T15:17:25.590Z,12.40
2019-03-16T15:18:30.655Z,12.40
2019-03-16T15:19:38.653Z,12.50
2019-03-16T15:20:43.727Z,12.50
2019-03-16T15:21:48.918Z,12.50
2019-03-16T15:22:55.273Z,12.50
2019-03-16T15:24:04.405Z,12.50
2019-03-16T15:25:11.371Z,12.60
2019-03-16T15:26:17.483Z,12.60
2019-03-16T15:27:25.930Z,12.50
2019-03-16T15:28:31.517Z,12.60
2019-03-16T15:29:45.215Z,12.60
2019-03-16T15:30:54.448Z,12.60
2019-03-16T15:31:57.468Z,12.60
2019-03-16T15:33:05.371Z,12.60
2019-03-16T15:34:10.547Z,12.60
2019-03-16T15:35:16.285Z,12.60
2019-03-16T15:36:24.016Z,12.60
2019-03-16T15:37:29.387Z,12.60
2019-03-16T15:38:38.513Z,12.60
2019-03-16T15:39:44.038Z,12.60
2019-03-16T15:40:49.168Z,12.60
2019-03-16T15:41:57.440Z,12.60
2019-03-16T15:43:02.430Z,12.60
2019-03-16T15:44:07.924Z,12.60
2019-03-16T15:45:17.116Z,12.60
2019-03-16T15:46:24.815Z,12.60
2019-03-16T15:47:30.213Z,12.60
2019-03-16T15:48:35.406Z,12.60
2019-03-16T15:49:43.323Z,12.60
2019-03-16T15:50:51.193Z,12.60
2019-03-16T15:51:56.371Z,12.60
2019-03-16T15:53:03.451Z,12.60
2019-03-16T15:54:08.691Z,12.60
2019-03-16T15:55:16.931Z,12.60
2019-03-16T15:56:28.585Z,12.60
2019-03-16T15:57:37.664Z,12.60
2019-03-16T15:58:43.817Z,12.60
2019-03-16T15:59:51.520Z,12.60
2019-03-16T16:01:03.455Z,12.50
2019-03-16T16:02:05.522Z,12.50
2019-03-16T16:03:10.581Z,12.50
2019-03-16T16:04:20.092Z,12.60
2019-03-16T16:05:28.927Z,12.60
2019-03-16T16:06:34.389Z,12.60
2019-03-16T16:07:39.646Z,12.60
2019-03-16T16:08:48.458Z,12.60
2019-03-16T16:09:56.198Z,12.60
2019-03-16T16:11:03.146Z,12.60
2019-03-16T16:12:09.110Z,12.60
2019-03-16T16:14:01.658Z,12.50
2019-03-16T21:35:48.833Z,10.80
2019-03-16T21:36:54.482Z,10.80
2019-03-16T21:38:03.022Z,10.80
2019-03-16T21:39:18.195Z,10.80
2019-03-16T21:40:29.031Z,10.80
2019-03-16T21:41:54.096Z,10.70
2019-03-16T21:43:02.406Z,10.70
2019-03-16T21:44:07.777Z,10.80
2019-03-16T21:45:14.912Z,10.80
2019-03-16T21:46:25.228Z,10.70
2019-03-16T21:47:59.097Z,10.70
2019-03-16T21:48:59.501Z,10.70
2019-03-16T21:50:07.591Z,10.70
2019-03-16T21:51:22.187Z,10.70
2019-03-16T21:52:35.128Z,10.70
2019-03-16T21:53:42.384Z,10.80
2019-03-16T21:54:47.569Z,10.80
2019-03-16T21:55:58.477Z,10.80
2019-03-16T21:57:27.362Z,10.80
2019-03-16T21:58:35.836Z,10.80
2019-03-16T22:00:01.003Z,10.80
2019-03-16T22:01:09.981Z,10.80
2019-03-16T22:02:17.401Z,11.00
2019-03-16T22:03:41.660Z,10.90
2019-03-16T22:04:38.535Z,10.90
2019-03-16T22:05:47.677Z,10.90
2019-03-16T22:06:58.321Z,10.90
2019-03-16T22:08:06.152Z,11.00
2019-03-16T22:09:13.070Z,11.00
2019-03-16T22:10:18.871Z,11.00
2019-03-16T22:11:26.245Z,11.00
2019-03-16T22:12:36.732Z,11.00
2019-03-16T22:13:48.507Z,11.00
2019-03-16T22:14:53.842Z,11.00
2019-03-16T22:16:00.755Z,11.00
2019-03-16T22:17:05.868Z,11.00
2019-03-16T22:18:11.332Z,11.10
2019-03-16T22:19:21.384Z,11.10
2019-03-16T22:20:27.205Z,11.10
2019-03-16T22:21:32.271Z,11.10
2019-03-16T22:22:43.426Z,11.10
2019-03-16T22:23:48.673Z,11.10
2019-03-16T22:24:54.383Z,11.10
2019-03-16T22:25:59.524Z,11.20
2019-03-16T22:27:09.780Z,11.20
2019-03-16T22:28:17.040Z,11.20
2019-03-16T22:29:22.440Z,11.20
2019-03-16T22:30:27.917Z,11.20
2019-03-16T22:31:44.672Z,11.20
2019-03-16T22:32:49.657Z,11.20
2019-03-16T22:33:55.077Z,11.20
2019-03-16T22:35:01.183Z,11.20
2019-03-16T22:36:11.523Z,11.20
2019-03-16T22:37:16.740Z,11.20
2019-03-16T22:38:35.430Z,11.30
2019-03-16T22:39:42.155Z,11.30
2019-03-16T22:40:50.453Z,11.30
2019-03-16T22:41:56.313Z,11.30
2019-03-16T22:43:17.898Z,11.30
2019-03-16T22:44:24.731Z,11.30
2019-03-16T22:45:37.960Z,11.30
2019-03-16T22:46:48.964Z,11.30
2019-03-16T22:47:53.948Z,11.40
2019-03-16T22:48:59.902Z,11.40
2019-03-16T22:50:06.207Z,11.40
2019-03-16T22:51:17.250Z,11.40
2019-03-16T22:52:28.326Z,11.40
2019-03-16T22:53:35.451Z,11.50
2019-03-16T22:54:40.739Z,11.50
2019-03-16T22:55:52.234Z,11.50
2019-03-16T22:57:01.172Z,11.50
2019-03-16T22:58:06.228Z,11.50
2019-03-16T22:59:11.280Z,11.50
2019-03-16T23:00:19.228Z,11.50
2019-03-16T23:01:27.673Z,11.50
2019-03-16T23:02:32.953Z,11.50
2019-03-16T23:03:39.321Z,11.50
2019-03-16T23:04:49.777Z,11.50
2019-03-16T23:05:59.373Z,11.50
2019-03-16T23:07:08.783Z,11.50
2019-03-16T23:08:14.452Z,11.60
2019-03-16T23:09:24.249Z,11.60
2019-03-16T23:10:30.804Z,11.60
2019-03-16T23:11:37.602Z,11.60
2019-03-16T23:13:11.260Z,11.60
2019-03-16T23:14:17.499Z,11.60
2019-03-16T23:15:24.404Z,11.60
2019-03-16T23:16:33.111Z,11.60
2019-03-16T23:17:42.199Z,11.60
2019-03-16T23:18:54.057Z,11.60
2019-03-16T23:19:59.556Z,11.60
2019-03-16T23:21:20.874Z,11.60
2019-03-16T23:22:26.785Z,11.60
2019-03-16T23:23:35.185Z,11.60
2019-03-16T23:24:41.932Z,11.60
2019-03-16T23:25:46.994Z,11.60
2019-03-16T23:26:52.305Z,11.60
2019-03-16T23:27:57.298Z,11.50
2019-03-16T23:29:02.514Z,11.60
2019-03-16T23:30:08.414Z,11.60
2019-03-16T23:31:13.850Z,11.60